ESSD/BLE METAR and TAF weather

Enter ICAO airport designator
Station Type Date Time Source
ESSD METAR 2018/01/17 06:20 UTC NOAA

ESSD 170620Z 09008KT 1600 SN BKN005 OVC010 M02/M03 Q0986


Station Type Date Time Source
ESSD Decoded METAR 2018/01/17 06:20 UTC NOAA

Borlange, Sweden (ESSD) 60-26N 015-31E 0M
Jan 17, 2018 - 01:20 AM EST / 2018.01.17 0620 UTC
Wind: from the E (090 degrees) at 9 MPH (8 KT):0
Visibility: less than 1 mile:0
Sky conditions: overcast
Weather: snow
Temperature: 28 F (-2 C)
Windchill: 19 F (-7 C):1
Dew Point: 26 F (-3 C)
Relative Humidity: 92%
Pressure (altimeter): 29.12 in. Hg (0986 hPa)
ob: ESSD 170620Z 09008KT 1600 SN BKN005 OVC010 M02/M03 Q0986
cycle: 6

Station Type Date Time Source
ESSD TAF 2017/06/08 09:18 UTC NOAA

TAF
AMD TAF
AMD ESSD 080907 0809/0818 11010KT 9999 BKN017 PROB40 0809/0810 BKN009 PROB40 0812/0818 SHRA BKN025CB


Example: see airport list